sensor_id;sensor_type;location;lat;lon;timestamp;P1;durP1;ratioP1;P2;durP2;ratioP2
69750;SDS011;57335;52.288;6.056;2022-10-16T00:02:17;10.30;;;2.60;;
69750;SDS011;57335;52.288;6.056;2022-10-16T00:04:43;7.97;;;2.53;;
69750;SDS011;57335;52.288;6.056;2022-10-16T00:07:10;8.73;;;2.50;;
69750;SDS011;57335;52.288;6.056;2022-10-16T00:09:36;5.97;;;2.30;;
69750;SDS011;57335;52.288;6.056;2022-10-16T00:12:03;8.60;;;2.58;;
69750;SDS011;57335;52.288;6.056;2022-10-16T00:14:29;6.65;;;2.40;;
69750;SDS011;57335;52.288;6.056;2022-10-16T00:16:56;6.32;;;2.38;;
69750;SDS011;57335;52.288;6.056;2022-10-16T00:19:22;6.30;;;2.00;;
69750;SDS011;57335;52.288;6.056;2022-10-16T00:21:49;6.63;;;2.30;;
69750;SDS011;57335;52.288;6.056;2022-10-16T00:24:15;6.55;;;2.40;;
69750;SDS011;57335;52.288;6.056;2022-10-16T00:26:41;6.75;;;2.55;;
69750;SDS011;57335;52.288;6.056;2022-10-16T00:29:08;8.13;;;2.30;;
69750;SDS011;57335;52.288;6.056;2022-10-16T00:31:35;7.72;;;2.10;;
69750;SDS011;57335;52.288;6.056;2022-10-16T00:34:01;7.07;;;2.30;;
69750;SDS011;57335;52.288;6.056;2022-10-16T00:36:28;8.77;;;2.55;;
69750;SDS011;57335;52.288;6.056;2022-10-16T00:38:55;6.45;;;2.55;;
69750;SDS011;57335;52.288;6.056;2022-10-16T00:41:31;6.18;;;2.50;;
69750;SDS011;57335;52.288;6.056;2022-10-16T00:44:00;7.03;;;2.47;;
69750;SDS011;57335;52.288;6.056;2022-10-16T00:46:35;9.05;;;2.97;;
69750;SDS011;57335;52.288;6.056;2022-10-16T00:49:06;8.25;;;2.72;;
69750;SDS011;57335;52.288;6.056;2022-10-16T00:51:40;8.15;;;2.90;;
69750;SDS011;57335;52.288;6.056;2022-10-16T00:54:11;8.20;;;2.60;;
69750;SDS011;57335;52.288;6.056;2022-10-16T00:56:41;8.30;;;2.58;;
69750;SDS011;57335;52.288;6.056;2022-10-16T00:59:14;8.35;;;2.47;;
69750;SDS011;57335;52.288;6.056;2022-10-16T01:01:42;8.18;;;2.75;;
69750;SDS011;57335;52.288;6.056;2022-10-16T01:04:08;6.50;;;2.70;;
69750;SDS011;57335;52.288;6.056;2022-10-16T01:07:00;6.20;;;2.65;;
69750;SDS011;57335;52.288;6.056;2022-10-16T01:09:39;8.25;;;2.50;;
69750;SDS011;57335;52.288;6.056;2022-10-16T01:15:39;7.00;;;2.60;;
69750;SDS011;57335;52.288;6.056;2022-10-16T01:18:18;7.40;;;2.58;;
69750;SDS011;57335;52.288;6.056;2022-10-16T01:20:53;9.60;;;3.03;;
69750;SDS011;57335;52.288;6.056;2022-10-16T01:28:27;8.95;;;2.42;;
69750;SDS011;57335;52.288;6.056;2022-10-16T01:30:59;8.70;;;3.20;;
69750;SDS011;57335;52.288;6.056;2022-10-16T01:33:30;7.20;;;2.90;;
69750;SDS011;57335;52.288;6.056;2022-10-16T01:36:05;6.53;;;2.33;;
69750;SDS011;57335;52.288;6.056;2022-10-16T01:38:37;5.70;;;2.35;;
69750;SDS011;57335;52.288;6.056;2022-10-16T01:41:09;8.27;;;2.80;;
69750;SDS011;57335;52.288;6.056;2022-10-16T01:43:41;7.30;;;2.58;;
69750;SDS011;57335;52.288;6.056;2022-10-16T01:46:13;6.88;;;2.50;;
69750;SDS011;57335;52.288;6.056;2022-10-16T01:48:41;8.18;;;2.60;;
69750;SDS011;57335;52.288;6.056;2022-10-16T01:51:12;6.90;;;2.40;;
69750;SDS011;57335;52.288;6.056;2022-10-16T01:53:41;8.95;;;2.60;;
69750;SDS011;57335;52.288;6.056;2022-10-16T01:56:12;6.75;;;2.53;;
69750;SDS011;57335;52.288;6.056;2022-10-16T01:58:45;6.95;;;2.90;;
69750;SDS011;57335;52.288;6.056;2022-10-16T02:01:16;7.20;;;2.85;;
69750;SDS011;57335;52.288;6.056;2022-10-16T02:03:46;8.43;;;2.50;;
69750;SDS011;57335;52.288;6.056;2022-10-16T02:06:16;5.78;;;2.50;;
69750;SDS011;57335;52.288;6.056;2022-10-16T02:08:42;8.35;;;2.65;;
69750;SDS011;57335;52.288;6.056;2022-10-16T02:11:09;10.20;;;2.70;;
69750;SDS011;57335;52.288;6.056;2022-10-16T02:13:37;8.05;;;2.72;;
69750;SDS011;57335;52.288;6.056;2022-10-16T02:16:09;7.15;;;2.83;;
69750;SDS011;57335;52.288;6.056;2022-10-16T02:18:37;7.82;;;3.03;;
69750;SDS011;57335;52.288;6.056;2022-10-16T02:26:31;8.65;;;2.83;;
69750;SDS011;57335;52.288;6.056;2022-10-16T02:29:02;7.63;;;2.70;;
69750;SDS011;57335;52.288;6.056;2022-10-16T02:31:32;8.07;;;3.30;;
69750;SDS011;57335;52.288;6.056;2022-10-16T02:34:04;9.48;;;2.83;;
69750;SDS011;57335;52.288;6.056;2022-10-16T02:36:32;7.53;;;2.78;;
69750;SDS011;57335;52.288;6.056;2022-10-16T02:39:02;7.03;;;2.80;;
69750;SDS011;57335;52.288;6.056;2022-10-16T02:41:30;9.18;;;2.97;;
69750;SDS011;57335;52.288;6.056;2022-10-16T02:43:56;8.00;;;2.85;;
69750;SDS011;57335;52.288;6.056;2022-10-16T02:46:23;8.07;;;2.78;;
69750;SDS011;57335;52.288;6.056;2022-10-16T02:48:49;7.75;;;3.08;;
69750;SDS011;57335;52.288;6.056;2022-10-16T02:51:16;7.13;;;2.75;;
69750;SDS011;57335;52.288;6.056;2022-10-16T02:53:42;7.47;;;2.90;;
69750;SDS011;57335;52.288;6.056;2022-10-16T02:56:08;7.97;;;2.70;;
69750;SDS011;57335;52.288;6.056;2022-10-16T02:58:35;7.03;;;2.67;;
69750;SDS011;57335;52.288;6.056;2022-10-16T03:01:01;6.85;;;2.80;;
69750;SDS011;57335;52.288;6.056;2022-10-16T03:03:28;7.95;;;2.85;;
69750;SDS011;57335;52.288;6.056;2022-10-16T03:05:54;7.38;;;3.10;;
69750;SDS011;57335;52.288;6.056;2022-10-16T03:08:20;10.85;;;3.33;;
69750;SDS011;57335;52.288;6.056;2022-10-16T03:10:47;7.63;;;2.60;;
69750;SDS011;57335;52.288;6.056;2022-10-16T03:13:13;11.90;;;2.97;;
69750;SDS011;57335;52.288;6.056;2022-10-16T03:15:39;8.48;;;2.92;;
69750;SDS011;57335;52.288;6.056;2022-10-16T03:18:06;6.93;;;2.75;;
69750;SDS011;57335;52.288;6.056;2022-10-16T03:20:32;7.25;;;2.72;;
69750;SDS011;57335;52.288;6.056;2022-10-16T03:22:59;6.72;;;2.70;;
69750;SDS011;57335;52.288;6.056;2022-10-16T03:25:25;7.45;;;2.65;;
69750;SDS011;57335;52.288;6.056;2022-10-16T03:27:52;7.07;;;2.42;;
69750;SDS011;57335;52.288;6.056;2022-10-16T03:30:18;6.78;;;2.40;;
69750;SDS011;57335;52.288;6.056;2022-10-16T03:32:44;6.78;;;2.63;;
69750;SDS011;57335;52.288;6.056;2022-10-16T03:35:11;6.38;;;2.60;;
69750;SDS011;57335;52.288;6.056;2022-10-16T03:37:37;6.97;;;2.75;;
69750;SDS011;57335;52.288;6.056;2022-10-16T03:40:04;7.45;;;2.78;;
69750;SDS011;57335;52.288;6.056;2022-10-16T03:42:31;8.77;;;2.72;;
69750;SDS011;57335;52.288;6.056;2022-10-16T03:44:57;7.88;;;2.67;;
69750;SDS011;57335;52.288;6.056;2022-10-16T03:47:23;5.63;;;2.60;;
69750;SDS011;57335;52.288;6.056;2022-10-16T03:49:50;7.32;;;2.67;;
69750;SDS011;57335;52.288;6.056;2022-10-16T03:52:17;7.55;;;2.45;;
69750;SDS011;57335;52.288;6.056;2022-10-16T03:54:44;7.00;;;2.42;;
69750;SDS011;57335;52.288;6.056;2022-10-16T03:57:10;6.97;;;2.60;;
69750;SDS011;57335;52.288;6.056;2022-10-16T03:59:37;7.15;;;2.42;;
69750;SDS011;57335;52.288;6.056;2022-10-16T04:02:03;6.82;;;2.50;;
69750;SDS011;57335;52.288;6.056;2022-10-16T04:04:29;6.43;;;2.53;;
69750;SDS011;57335;52.288;6.056;2022-10-16T04:06:56;6.57;;;2.50;;
69750;SDS011;57335;52.288;6.056;2022-10-16T04:09:22;7.55;;;2.70;;
69750;SDS011;57335;52.288;6.056;2022-10-16T04:11:48;6.70;;;2.83;;
69750;SDS011;57335;52.288;6.056;2022-10-16T04:14:15;7.90;;;2.72;;
69750;SDS011;57335;52.288;6.056;2022-10-16T04:16:41;8.50;;;2.95;;
69750;SDS011;57335;52.288;6.056;2022-10-16T04:19:08;5.70;;;2.30;;
69750;SDS011;57335;52.288;6.056;2022-10-16T04:21:35;6.78;;;2.33;;
69750;SDS011;57335;52.288;6.056;2022-10-16T04:24:02;5.15;;;2.22;;
69750;SDS011;57335;52.288;6.056;2022-10-16T04:26:29;6.10;;;2.20;;
69750;SDS011;57335;52.288;6.056;2022-10-16T04:28:56;5.80;;;2.10;;
69750;SDS011;57335;52.288;6.056;2022-10-16T04:31:22;7.80;;;2.42;;
69750;SDS011;57335;52.288;6.056;2022-10-16T04:33:48;7.05;;;2.13;;
69750;SDS011;57335;52.288;6.056;2022-10-16T04:36:15;7.63;;;2.33;;
69750;SDS011;57335;52.288;6.056;2022-10-16T04:38:41;7.35;;;2.60;;
69750;SDS011;57335;52.288;6.056;2022-10-16T04:41:07;6.90;;;2.08;;
69750;SDS011;57335;52.288;6.056;2022-10-16T04:43:34;7.25;;;2.60;;
69750;SDS011;57335;52.288;6.056;2022-10-16T04:46:01;6.35;;;2.10;;
69750;SDS011;57335;52.288;6.056;2022-10-16T04:48:27;6.22;;;2.47;;
69750;SDS011;57335;52.288;6.056;2022-10-16T04:50:54;5.88;;;2.22;;
69750;SDS011;57335;52.288;6.056;2022-10-16T04:53:20;7.85;;;2.50;;
69750;SDS011;57335;52.288;6.056;2022-10-16T04:55:47;5.88;;;2.30;;
69750;SDS011;57335;52.288;6.056;2022-10-16T04:58:13;8.18;;;2.58;;
69750;SDS011;57335;52.288;6.056;2022-10-16T05:00:39;7.97;;;2.17;;
69750;SDS011;57335;52.288;6.056;2022-10-16T05:03:06;6.93;;;2.35;;
69750;SDS011;57335;52.288;6.056;2022-10-16T05:05:32;6.18;;;2.25;;
69750;SDS011;57335;52.288;6.056;2022-10-16T05:07:59;4.38;;;2.00;;
69750;SDS011;57335;52.288;6.056;2022-10-16T05:10:26;6.53;;;2.00;;
69750;SDS011;57335;52.288;6.056;2022-10-16T05:12:52;7.75;;;2.10;;
69750;SDS011;57335;52.288;6.056;2022-10-16T05:15:18;6.35;;;1.85;;
69750;SDS011;57335;52.288;6.056;2022-10-16T05:17:45;6.05;;;1.95;;
69750;SDS011;57335;52.288;6.056;2022-10-16T05:20:11;5.63;;;2.03;;
69750;SDS011;57335;52.288;6.056;2022-10-16T05:22:38;6.75;;;1.95;;
69750;SDS011;57335;52.288;6.056;2022-10-16T05:25:04;6.38;;;1.92;;
69750;SDS011;57335;52.288;6.056;2022-10-16T05:27:31;6.65;;;1.90;;
69750;SDS011;57335;52.288;6.056;2022-10-16T05:29:57;5.35;;;2.08;;
69750;SDS011;57335;52.288;6.056;2022-10-16T05:32:24;5.20;;;1.80;;
69750;SDS011;57335;52.288;6.056;2022-10-16T05:34:50;6.03;;;2.65;;
69750;SDS011;57335;52.288;6.056;2022-10-16T05:37:16;6.22;;;2.00;;
69750;SDS011;57335;52.288;6.056;2022-10-16T05:39:43;4.57;;;1.88;;
69750;SDS011;57335;52.288;6.056;2022-10-16T05:42:09;6.53;;;2.00;;
69750;SDS011;57335;52.288;6.056;2022-10-16T05:44:35;6.40;;;2.05;;
69750;SDS011;57335;52.288;6.056;2022-10-16T05:47:02;8.32;;;2.17;;
69750;SDS011;57335;52.288;6.056;2022-10-16T05:49:28;5.45;;;1.92;;
69750;SDS011;57335;52.288;6.056;2022-10-16T05:51:54;5.78;;;2.08;;
69750;SDS011;57335;52.288;6.056;2022-10-16T05:54:21;6.22;;;2.17;;
69750;SDS011;57335;52.288;6.056;2022-10-16T05:56:47;8.60;;;2.25;;
69750;SDS011;57335;52.288;6.056;2022-10-16T05:59:13;7.22;;;2.30;;
69750;SDS011;57335;52.288;6.056;2022-10-16T06:01:40;6.75;;;2.40;;
69750;SDS011;57335;52.288;6.056;2022-10-16T06:04:07;8.32;;;2.30;;
69750;SDS011;57335;52.288;6.056;2022-10-16T06:06:34;7.28;;;2.10;;
69750;SDS011;57335;52.288;6.056;2022-10-16T06:09:00;8.63;;;2.33;;
69750;SDS011;57335;52.288;6.056;2022-10-16T06:11:28;6.57;;;2.40;;
69750;SDS011;57335;52.288;6.056;2022-10-16T06:13:56;6.22;;;2.50;;
69750;SDS011;57335;52.288;6.056;2022-10-16T06:16:24;7.53;;;2.45;;
69750;SDS011;57335;52.288;6.056;2022-10-16T06:18:52;7.68;;;2.25;;
69750;SDS011;57335;52.288;6.056;2022-10-16T06:21:21;7.40;;;2.17;;
69750;SDS011;57335;52.288;6.056;2022-10-16T06:23:49;7.15;;;2.40;;
69750;SDS011;57335;52.288;6.056;2022-10-16T06:26:17;6.70;;;2.78;;
69750;SDS011;57335;52.288;6.056;2022-10-16T06:28:45;7.63;;;2.58;;
69750;SDS011;57335;52.288;6.056;2022-10-16T06:31:12;7.25;;;2.60;;
69750;SDS011;57335;52.288;6.056;2022-10-16T06:33:39;6.43;;;2.50;;
69750;SDS011;57335;52.288;6.056;2022-10-16T06:38:36;9.10;;;2.67;;
69750;SDS011;57335;52.288;6.056;2022-10-16T06:41:04;6.85;;;2.30;;
69750;SDS011;57335;52.288;6.056;2022-10-16T06:43:31;8.02;;;2.65;;
69750;SDS011;57335;52.288;6.056;2022-10-16T06:45:59;7.47;;;2.70;;
69750;SDS011;57335;52.288;6.056;2022-10-16T06:48:26;6.45;;;2.30;;
69750;SDS011;57335;52.288;6.056;2022-10-16T06:53:28;6.45;;;2.60;;
69750;SDS011;57335;52.288;6.056;2022-10-16T06:58:35;9.77;;;2.70;;
69750;SDS011;57335;52.288;6.056;2022-10-16T07:01:03;6.32;;;2.53;;
69750;SDS011;57335;52.288;6.056;2022-10-16T07:03:30;9.68;;;2.70;;
69750;SDS011;57335;52.288;6.056;2022-10-16T07:05:57;6.25;;;2.33;;
69750;SDS011;57335;52.288;6.056;2022-10-16T07:08:23;6.63;;;2.45;;
69750;SDS011;57335;52.288;6.056;2022-10-16T07:10:57;8.18;;;2.65;;
69750;SDS011;57335;52.288;6.056;2022-10-16T07:13:24;6.32;;;2.38;;
69750;SDS011;57335;52.288;6.056;2022-10-16T07:15:50;7.10;;;2.33;;
69750;SDS011;57335;52.288;6.056;2022-10-16T07:18:17;6.15;;;2.50;;
69750;SDS011;57335;52.288;6.056;2022-10-16T07:20:43;5.57;;;2.20;;
69750;SDS011;57335;52.288;6.056;2022-10-16T07:23:09;7.18;;;2.35;;
69750;SDS011;57335;52.288;6.056;2022-10-16T07:25:36;7.07;;;2.65;;
69750;SDS011;57335;52.288;6.056;2022-10-16T07:28:02;8.75;;;2.58;;
69750;SDS011;57335;52.288;6.056;2022-10-16T07:30:28;5.95;;;2.40;;
69750;SDS011;57335;52.288;6.056;2022-10-16T07:32:55;6.63;;;2.22;;
69750;SDS011;57335;52.288;6.056;2022-10-16T07:35:21;6.45;;;2.50;;
69750;SDS011;57335;52.288;6.056;2022-10-16T07:37:47;6.22;;;2.30;;
69750;SDS011;57335;52.288;6.056;2022-10-16T07:40:14;6.63;;;2.30;;
69750;SDS011;57335;52.288;6.056;2022-10-16T07:42:40;6.03;;;2.20;;
69750;SDS011;57335;52.288;6.056;2022-10-16T07:45:06;5.25;;;2.13;;
69750;SDS011;57335;52.288;6.056;2022-10-16T07:47:33;6.78;;;2.63;;
69750;SDS011;57335;52.288;6.056;2022-10-16T07:49:59;5.22;;;2.03;;
69750;SDS011;57335;52.288;6.056;2022-10-16T07:52:26;6.10;;;2.40;;
69750;SDS011;57335;52.288;6.056;2022-10-16T07:54:52;8.35;;;2.40;;
69750;SDS011;57335;52.288;6.056;2022-10-16T07:57:23;5.95;;;2.17;;
69750;SDS011;57335;52.288;6.056;2022-10-16T07:59:50;5.70;;;2.28;;
69750;SDS011;57335;52.288;6.056;2022-10-16T08:02:16;5.88;;;2.03;;
69750;SDS011;57335;52.288;6.056;2022-10-16T08:04:43;6.80;;;2.47;;
69750;SDS011;57335;52.288;6.056;2022-10-16T08:07:09;8.60;;;2.10;;
69750;SDS011;57335;52.288;6.056;2022-10-16T08:09:35;6.03;;;1.90;;
69750;SDS011;57335;52.288;6.056;2022-10-16T08:12:02;7.97;;;2.15;;
69750;SDS011;57335;52.288;6.056;2022-10-16T08:14:28;6.55;;;1.98;;
69750;SDS011;57335;52.288;6.056;2022-10-16T08:16:54;6.57;;;2.13;;
69750;SDS011;57335;52.288;6.056;2022-10-16T08:19:21;6.05;;;2.13;;
69750;SDS011;57335;52.288;6.056;2022-10-16T08:21:47;8.00;;;2.17;;
69750;SDS011;57335;52.288;6.056;2022-10-16T08:24:13;6.63;;;1.80;;
69750;SDS011;57335;52.288;6.056;2022-10-16T08:26:40;4.55;;;1.70;;
69750;SDS011;57335;52.288;6.056;2022-10-16T08:29:06;7.00;;;1.73;;
69750;SDS011;57335;52.288;6.056;2022-10-16T08:31:33;6.10;;;2.05;;
69750;SDS011;57335;52.288;6.056;2022-10-16T08:33:59;6.72;;;1.92;;
69750;SDS011;57335;52.288;6.056;2022-10-16T08:36:26;5.30;;;1.80;;
69750;SDS011;57335;52.288;6.056;2022-10-16T08:38:52;5.68;;;2.13;;
69750;SDS011;57335;52.288;6.056;2022-10-16T08:44:20;4.57;;;1.95;;
69750;SDS011;57335;52.288;6.056;2022-10-16T08:49:55;4.93;;;1.80;;
69750;SDS011;57335;52.288;6.056;2022-10-16T08:52:29;6.85;;;2.17;;
69750;SDS011;57335;52.288;6.056;2022-10-16T08:54:58;7.50;;;2.10;;
69750;SDS011;57335;52.288;6.056;2022-10-16T08:57:25;6.20;;;2.00;;
69750;SDS011;57335;52.288;6.056;2022-10-16T08:59:52;6.10;;;2.03;;
69750;SDS011;57335;52.288;6.056;2022-10-16T09:13:29;7.40;;;2.38;;
69750;SDS011;57335;52.288;6.056;2022-10-16T09:18:43;8.05;;;2.50;;
69750;SDS011;57335;52.288;6.056;2022-10-16T09:21:25;7.03;;;2.20;;
69750;SDS011;57335;52.288;6.056;2022-10-16T09:26:41;8.20;;;2.47;;
69750;SDS011;57335;52.288;6.056;2022-10-16T09:29:10;6.88;;;2.10;;
69750;SDS011;57335;52.288;6.056;2022-10-16T09:31:38;8.55;;;2.13;;
69750;SDS011;57335;52.288;6.056;2022-10-16T09:34:05;6.63;;;2.08;;
69750;SDS011;57335;52.288;6.056;2022-10-16T09:36:38;7.45;;;2.33;;
69750;SDS011;57335;52.288;6.056;2022-10-16T09:39:08;6.95;;;2.10;;
69750;SDS011;57335;52.288;6.056;2022-10-16T09:41:36;6.25;;;2.28;;
69750;SDS011;57335;52.288;6.056;2022-10-16T09:44:06;6.60;;;1.90;;
69750;SDS011;57335;52.288;6.056;2022-10-16T09:46:46;6.80;;;2.17;;
69750;SDS011;57335;52.288;6.056;2022-10-16T09:49:19;4.20;;;1.80;;
69750;SDS011;57335;52.288;6.056;2022-10-16T09:51:48;6.97;;;2.13;;
69750;SDS011;57335;52.288;6.056;2022-10-16T09:54:15;6.05;;;1.90;;
69750;SDS011;57335;52.288;6.056;2022-10-16T09:56:44;5.65;;;1.70;;
69750;SDS011;57335;52.288;6.056;2022-10-16T09:59:12;6.50;;;1.90;;
69750;SDS011;57335;52.288;6.056;2022-10-16T10:01:44;4.95;;;1.50;;
69750;SDS011;57335;52.288;6.056;2022-10-16T10:04:13;6.22;;;1.73;;
69750;SDS011;57335;52.288;6.056;2022-10-16T10:06:42;5.95;;;1.88;;
69750;SDS011;57335;52.288;6.056;2022-10-16T10:11:52;6.00;;;1.50;;
69750;SDS011;57335;52.288;6.056;2022-10-16T10:14:24;7.82;;;1.73;;
69750;SDS011;57335;52.288;6.056;2022-10-16T10:17:01;6.05;;;1.50;;
69750;SDS011;57335;52.288;6.056;2022-10-16T10:24:54;10.07;;;1.73;;
69750;SDS011;57335;52.288;6.056;2022-10-16T10:30:34;10.05;;;1.90;;
69750;SDS011;57335;52.288;6.056;2022-10-16T10:33:09;10.65;;;1.50;;
69750;SDS011;57335;52.288;6.056;2022-10-16T10:38:50;8.25;;;1.95;;
69750;SDS011;57335;52.288;6.056;2022-10-16T10:41:28;8.68;;;1.60;;
69750;SDS011;57335;52.288;6.056;2022-10-16T10:46:51;5.28;;;1.70;;
69750;SDS011;57335;52.288;6.056;2022-10-16T10:57:50;11.10;;;1.90;;
69750;SDS011;57335;52.288;6.056;2022-10-16T11:00:41;8.57;;;1.65;;
69750;SDS011;57335;52.288;6.056;2022-10-16T11:05:55;5.50;;;1.45;;
69750;SDS011;57335;52.288;6.056;2022-10-16T11:08:32;8.07;;;1.70;;
69750;SDS011;57335;52.288;6.056;2022-10-16T11:11:02;9.02;;;1.50;;
69750;SDS011;57335;52.288;6.056;2022-10-16T11:16:22;10.95;;;2.13;;
69750;SDS011;57335;52.288;6.056;2022-10-16T11:21:47;9.73;;;1.65;;
69750;SDS011;57335;52.288;6.056;2022-10-16T11:24:23;11.45;;;1.92;;
69750;SDS011;57335;52.288;6.056;2022-10-16T11:27:14;8.93;;;1.52;;
69750;SDS011;57335;52.288;6.056;2022-10-16T11:29:50;11.27;;;2.03;;
69750;SDS011;57335;52.288;6.056;2022-10-16T11:32:32;7.75;;;1.92;;
69750;SDS011;57335;52.288;6.056;2022-10-16T11:35:10;7.05;;;1.48;;
69750;SDS011;57335;52.288;6.056;2022-10-16T11:37:43;8.70;;;1.80;;
69750;SDS011;57335;52.288;6.056;2022-10-16T11:40:17;7.22;;;1.73;;
69750;SDS011;57335;52.288;6.056;2022-10-16T11:45:57;6.78;;;1.33;;
69750;SDS011;57335;52.288;6.056;2022-10-16T11:48:37;5.53;;;1.45;;
69750;SDS011;57335;52.288;6.056;2022-10-16T11:51:26;9.45;;;1.88;;
69750;SDS011;57335;52.288;6.056;2022-10-16T11:54:05;8.15;;;1.83;;
69750;SDS011;57335;52.288;6.056;2022-10-16T11:56:35;8.13;;;1.70;;
69750;SDS011;57335;52.288;6.056;2022-10-16T11:59:11;7.30;;;1.63;;
69750;SDS011;57335;52.288;6.056;2022-10-16T12:01:57;8.10;;;1.70;;
69750;SDS011;57335;52.288;6.056;2022-10-16T12:04:42;8.52;;;1.60;;
69750;SDS011;57335;52.288;6.056;2022-10-16T12:09:46;7.72;;;1.45;;
69750;SDS011;57335;52.288;6.056;2022-10-16T12:12:37;9.57;;;1.88;;
69750;SDS011;57335;52.288;6.056;2022-10-16T12:17:52;7.63;;;2.03;;
69750;SDS011;57335;52.288;6.056;2022-10-16T12:20:20;10.02;;;1.77;;
69750;SDS011;57335;52.288;6.056;2022-10-16T12:22:59;9.32;;;1.75;;
69750;SDS011;57335;52.288;6.056;2022-10-16T12:25:36;7.78;;;1.70;;
69750;SDS011;57335;52.288;6.056;2022-10-16T12:30:41;6.38;;;1.27;;
69750;SDS011;57335;52.288;6.056;2022-10-16T12:33:30;4.82;;;1.25;;
69750;SDS011;57335;52.288;6.056;2022-10-16T12:35:57;7.20;;;1.42;;
69750;SDS011;57335;52.288;6.056;2022-10-16T12:39:16;6.75;;;1.27;;
69750;SDS011;57335;52.288;6.056;2022-10-16T12:41:31;6.53;;;1.48;;
69750;SDS011;57335;52.288;6.056;2022-10-16T12:43:59;5.30;;;1.23;;
69750;SDS011;57335;52.288;6.056;2022-10-16T12:51:40;4.60;;;1.20;;
69750;SDS011;57335;52.288;6.056;2022-10-16T13:02:39;7.18;;;2.10;;
69750;SDS011;57335;52.288;6.056;2022-10-16T13:08:28;7.07;;;1.30;;
69750;SDS011;57335;52.288;6.056;2022-10-16T13:16:55;5.88;;;1.45;;
69750;SDS011;57335;52.288;6.056;2022-10-16T13:22:37;6.45;;;1.40;;
69750;SDS011;57335;52.288;6.056;2022-10-16T13:25:37;6.45;;;1.40;;
69750;SDS011;57335;52.288;6.056;2022-10-16T13:28:09;7.78;;;1.40;;
69750;SDS011;57335;52.288;6.056;2022-10-16T13:30:45;5.63;;;1.40;;
69750;SDS011;57335;52.288;6.056;2022-10-16T13:33:20;8.38;;;1.25;;
69750;SDS011;57335;52.288;6.056;2022-10-16T13:35:59;8.30;;;1.65;;
69750;SDS011;57335;52.288;6.056;2022-10-16T13:38:27;7.82;;;1.30;;
69750;SDS011;57335;52.288;6.056;2022-10-16T13:43:36;6.40;;;1.20;;
69750;SDS011;57335;52.288;6.056;2022-10-16T13:46:07;7.97;;;1.20;;
69750;SDS011;57335;52.288;6.056;2022-10-16T13:49:00;12.35;;;1.40;;
69750;SDS011;57335;52.288;6.056;2022-10-16T13:51:32;6.57;;;1.23;;
69750;SDS011;57335;52.288;6.056;2022-10-16T13:53:59;9.38;;;1.38;;
69750;SDS011;57335;52.288;6.056;2022-10-16T13:56:26;5.90;;;1.27;;
69750;SDS011;57335;52.288;6.056;2022-10-16T13:59:02;7.78;;;1.48;;
69750;SDS011;57335;52.288;6.056;2022-10-16T14:01:33;5.10;;;1.20;;
69750;SDS011;57335;52.288;6.056;2022-10-16T14:04:11;8.05;;;1.30;;
69750;SDS011;57335;52.288;6.056;2022-10-16T14:06:43;10.07;;;1.33;;
69750;SDS011;57335;52.288;6.056;2022-10-16T14:09:14;7.70;;;1.42;;
69750;SDS011;57335;52.288;6.056;2022-10-16T14:11:48;8.20;;;1.30;;
69750;SDS011;57335;52.288;6.056;2022-10-16T14:14:17;7.15;;;1.30;;
69750;SDS011;57335;52.288;6.056;2022-10-16T14:16:44;7.72;;;1.30;;
69750;SDS011;57335;52.288;6.056;2022-10-16T14:19:29;9.00;;;1.23;;
69750;SDS011;57335;52.288;6.056;2022-10-16T14:21:56;6.55;;;1.50;;
69750;SDS011;57335;52.288;6.056;2022-10-16T14:26:57;9.05;;;1.33;;
69750;SDS011;57335;52.288;6.056;2022-10-16T14:29:24;5.82;;;1.23;;
69750;SDS011;57335;52.288;6.056;2022-10-16T14:32:02;9.70;;;1.65;;
69750;SDS011;57335;52.288;6.056;2022-10-16T14:34:33;7.90;;;1.40;;
69750;SDS011;57335;52.288;6.056;2022-10-16T14:37:01;8.25;;;1.70;;
69750;SDS011;57335;52.288;6.056;2022-10-16T14:39:37;7.75;;;1.42;;
69750;SDS011;57335;52.288;6.056;2022-10-16T14:42:03;8.45;;;1.60;;
69750;SDS011;57335;52.288;6.056;2022-10-16T14:44:31;9.18;;;1.27;;
69750;SDS011;57335;52.288;6.056;2022-10-16T14:47:06;8.55;;;1.52;;
69750;SDS011;57335;52.288;6.056;2022-10-16T14:49:34;8.95;;;1.90;;
69750;SDS011;57335;52.288;6.056;2022-10-16T14:52:00;7.80;;;1.48;;
69750;SDS011;57335;52.288;6.056;2022-10-16T14:54:27;13.43;;;1.45;;
69750;SDS011;57335;52.288;6.056;2022-10-16T14:56:54;7.45;;;1.30;;
69750;SDS011;57335;52.288;6.056;2022-10-16T14:59:36;8.38;;;1.50;;
69750;SDS011;57335;52.288;6.056;2022-10-16T15:04:49;9.32;;;1.50;;
69750;SDS011;57335;52.288;6.056;2022-10-16T15:07:15;7.60;;;1.55;;
69750;SDS011;57335;52.288;6.056;2022-10-16T15:09:42;6.90;;;1.63;;
69750;SDS011;57335;52.288;6.056;2022-10-16T15:12:14;6.40;;;1.50;;
69750;SDS011;57335;52.288;6.056;2022-10-16T15:14:41;9.48;;;2.17;;
69750;SDS011;57335;52.288;6.056;2022-10-16T15:17:10;7.13;;;1.42;;
69750;SDS011;57335;52.288;6.056;2022-10-16T15:19:37;8.57;;;1.83;;
69750;SDS011;57335;52.288;6.056;2022-10-16T15:22:04;5.22;;;1.38;;
69750;SDS011;57335;52.288;6.056;2022-10-16T15:24:30;8.02;;;1.60;;
69750;SDS011;57335;52.288;6.056;2022-10-16T15:26:56;7.55;;;1.73;;
69750;SDS011;57335;52.288;6.056;2022-10-16T15:29:23;7.43;;;1.40;;
69750;SDS011;57335;52.288;6.056;2022-10-16T15:31:49;9.10;;;1.63;;
69750;SDS011;57335;52.288;6.056;2022-10-16T15:34:15;9.90;;;1.52;;
69750;SDS011;57335;52.288;6.056;2022-10-16T15:36:42;7.93;;;1.73;;
69750;SDS011;57335;52.288;6.056;2022-10-16T15:39:12;6.07;;;1.33;;
69750;SDS011;57335;52.288;6.056;2022-10-16T15:41:40;9.23;;;1.60;;
69750;SDS011;57335;52.288;6.056;2022-10-16T15:44:11;7.53;;;1.40;;
69750;SDS011;57335;52.288;6.056;2022-10-16T15:46:37;6.57;;;1.50;;
69750;SDS011;57335;52.288;6.056;2022-10-16T15:49:04;8.55;;;1.58;;
69750;SDS011;57335;52.288;6.056;2022-10-16T15:51:30;9.20;;;1.67;;
69750;SDS011;57335;52.288;6.056;2022-10-16T15:53:57;7.78;;;1.60;;
69750;SDS011;57335;52.288;6.056;2022-10-16T15:56:23;10.50;;;1.75;;
69750;SDS011;57335;52.288;6.056;2022-10-16T15:58:49;9.13;;;1.77;;
69750;SDS011;57335;52.288;6.056;2022-10-16T16:01:16;12.30;;;2.75;;
69750;SDS011;57335;52.288;6.056;2022-10-16T16:03:47;10.35;;;1.65;;
69750;SDS011;57335;52.288;6.056;2022-10-16T16:06:13;6.97;;;1.70;;
69750;SDS011;57335;52.288;6.056;2022-10-16T16:08:40;8.38;;;1.75;;
69750;SDS011;57335;52.288;6.056;2022-10-16T16:11:07;8.52;;;1.63;;
69750;SDS011;57335;52.288;6.056;2022-10-16T16:13:38;8.43;;;1.77;;
69750;SDS011;57335;52.288;6.056;2022-10-16T16:16:05;8.95;;;1.95;;
69750;SDS011;57335;52.288;6.056;2022-10-16T16:18:33;9.93;;;1.77;;
69750;SDS011;57335;52.288;6.056;2022-10-16T16:21:02;12.60;;;1.75;;
69750;SDS011;57335;52.288;6.056;2022-10-16T16:23:29;11.25;;;2.03;;
69750;SDS011;57335;52.288;6.056;2022-10-16T16:26:02;9.07;;;1.83;;
69750;SDS011;57335;52.288;6.056;2022-10-16T16:28:30;9.38;;;1.90;;
69750;SDS011;57335;52.288;6.056;2022-10-16T16:30:57;8.98;;;2.08;;
69750;SDS011;57335;52.288;6.056;2022-10-16T16:33:26;9.02;;;2.28;;
69750;SDS011;57335;52.288;6.056;2022-10-16T16:35:56;9.88;;;2.05;;
69750;SDS011;57335;52.288;6.056;2022-10-16T16:38:27;11.18;;;2.03;;
69750;SDS011;57335;52.288;6.056;2022-10-16T16:40:54;7.68;;;1.88;;
69750;SDS011;57335;52.288;6.056;2022-10-16T16:43:27;5.63;;;1.63;;
69750;SDS011;57335;52.288;6.056;2022-10-16T16:45:54;13.13;;;2.33;;
69750;SDS011;57335;52.288;6.056;2022-10-16T16:48:20;12.70;;;2.42;;
69750;SDS011;57335;52.288;6.056;2022-10-16T16:50:47;8.02;;;2.10;;
69750;SDS011;57335;52.288;6.056;2022-10-16T16:53:14;10.77;;;2.38;;
69750;SDS011;57335;52.288;6.056;2022-10-16T16:55:40;9.45;;;2.15;;
69750;SDS011;57335;52.288;6.056;2022-10-16T16:58:06;12.90;;;1.90;;
69750;SDS011;57335;52.288;6.056;2022-10-16T17:00:33;11.07;;;2.20;;
69750;SDS011;57335;52.288;6.056;2022-10-16T17:02:59;10.10;;;2.00;;